sensor_id;sensor_type;location;lat;lon;timestamp;P1;durP1;ratioP1;P2;durP2;ratioP2
49834;SDS011;35729;52.090;13.162;2023-07-28T00:02:23;2.80;;;2.50;;
49834;SDS011;35729;52.090;13.162;2023-07-28T00:04:52;3.70;;;2.65;;
49834;SDS011;35729;52.090;13.162;2023-07-28T00:07:20;3.60;;;2.35;;
49834;SDS011;35729;52.090;13.162;2023-07-28T00:09:49;2.60;;;2.40;;
49834;SDS011;35729;52.090;13.162;2023-07-28T00:12:17;5.20;;;2.20;;
49834;SDS011;35729;52.090;13.162;2023-07-28T00:14:49;3.15;;;2.13;;
49834;SDS011;35729;52.090;13.162;2023-07-28T00:17:17;3.63;;;2.03;;
49834;SDS011;35729;52.090;13.162;2023-07-28T00:19:46;5.07;;;2.55;;
49834;SDS011;35729;52.090;13.162;2023-07-28T00:22:14;5.15;;;2.28;;
49834;SDS011;35729;52.090;13.162;2023-07-28T00:24:43;3.88;;;2.40;;
49834;SDS011;35729;52.090;13.162;2023-07-28T00:27:11;3.88;;;2.38;;
49834;SDS011;35729;52.090;13.162;2023-07-28T00:29:40;2.90;;;1.98;;
49834;SDS011;35729;52.090;13.162;2023-07-28T00:32:11;2.25;;;2.03;;
49834;SDS011;35729;52.090;13.162;2023-07-28T00:34:39;2.10;;;1.77;;
49834;SDS011;35729;52.090;13.162;2023-07-28T00:37:08;3.40;;;2.03;;
49834;SDS011;35729;52.090;13.162;2023-07-28T00:39:36;2.55;;;1.92;;
49834;SDS011;35729;52.090;13.162;2023-07-28T00:42:05;2.97;;;2.10;;
49834;SDS011;35729;52.090;13.162;2023-07-28T00:44:34;3.55;;;1.92;;
49834;SDS011;35729;52.090;13.162;2023-07-28T00:47:03;4.20;;;2.15;;
49834;SDS011;35729;52.090;13.162;2023-07-28T00:49:34;6.07;;;2.30;;
49834;SDS011;35729;52.090;13.162;2023-07-28T00:52:03;3.45;;;1.80;;
49834;SDS011;35729;52.090;13.162;2023-07-28T00:54:34;3.03;;;2.03;;
49834;SDS011;35729;52.090;13.162;2023-07-28T00:57:03;2.05;;;1.67;;
49834;SDS011;35729;52.090;13.162;2023-07-28T00:59:32;2.83;;;1.88;;
49834;SDS011;35729;52.090;13.162;2023-07-28T01:02:01;3.88;;;2.38;;
49834;SDS011;35729;52.090;13.162;2023-07-28T01:04:30;10.13;;;2.35;;
49834;SDS011;35729;52.090;13.162;2023-07-28T01:07:03;2.40;;;2.03;;
49834;SDS011;35729;52.090;13.162;2023-07-28T01:09:39;2.20;;;2.00;;
49834;SDS011;35729;52.090;13.162;2023-07-28T01:12:11;5.75;;;2.22;;
49834;SDS011;35729;52.090;13.162;2023-07-28T01:14:39;1.95;;;1.77;;
49834;SDS011;35729;52.090;13.162;2023-07-28T01:17:07;3.08;;;2.03;;
49834;SDS011;35729;52.090;13.162;2023-07-28T01:19:36;4.80;;;2.17;;
49834;SDS011;35729;52.090;13.162;2023-07-28T01:22:11;3.03;;;2.15;;
49834;SDS011;35729;52.090;13.162;2023-07-28T01:24:55;4.93;;;1.92;;
49834;SDS011;35729;52.090;13.162;2023-07-28T01:27:34;3.00;;;1.85;;
49834;SDS011;35729;52.090;13.162;2023-07-28T01:30:07;2.55;;;1.90;;
49834;SDS011;35729;52.090;13.162;2023-07-28T01:32:36;5.80;;;2.03;;
49834;SDS011;35729;52.090;13.162;2023-07-28T01:35:05;7.78;;;2.22;;
49834;SDS011;35729;52.090;13.162;2023-07-28T01:37:35;6.82;;;2.10;;
49834;SDS011;35729;52.090;13.162;2023-07-28T01:40:04;2.72;;;1.88;;
49834;SDS011;35729;52.090;13.162;2023-07-28T01:42:36;4.93;;;2.22;;
49834;SDS011;35729;52.090;13.162;2023-07-28T01:45:05;2.78;;;1.90;;
49834;SDS011;35729;52.090;13.162;2023-07-28T01:47:34;4.60;;;2.17;;
49834;SDS011;35729;52.090;13.162;2023-07-28T01:50:03;6.38;;;1.90;;
49834;SDS011;35729;52.090;13.162;2023-07-28T01:52:32;7.40;;;1.80;;
49834;SDS011;35729;52.090;13.162;2023-07-28T01:55:00;6.00;;;2.03;;
49834;SDS011;35729;52.090;13.162;2023-07-28T01:57:32;5.30;;;1.98;;
49834;SDS011;35729;52.090;13.162;2023-07-28T02:00:04;4.10;;;1.67;;
49834;SDS011;35729;52.090;13.162;2023-07-28T02:02:33;3.45;;;1.70;;
49834;SDS011;35729;52.090;13.162;2023-07-28T02:05:01;5.05;;;1.92;;
49834;SDS011;35729;52.090;13.162;2023-07-28T02:07:30;2.03;;;1.70;;
49834;SDS011;35729;52.090;13.162;2023-07-28T02:09:58;2.53;;;1.85;;
49834;SDS011;35729;52.090;13.162;2023-07-28T02:12:27;2.90;;;1.83;;
49834;SDS011;35729;52.090;13.162;2023-07-28T02:14:55;3.55;;;1.80;;
49834;SDS011;35729;52.090;13.162;2023-07-28T02:17:26;3.35;;;1.65;;
49834;SDS011;35729;52.090;13.162;2023-07-28T02:19:55;6.00;;;2.00;;
49834;SDS011;35729;52.090;13.162;2023-07-28T02:22:30;4.32;;;1.98;;
49834;SDS011;35729;52.090;13.162;2023-07-28T02:24:59;2.92;;;1.60;;
49834;SDS011;35729;52.090;13.162;2023-07-28T02:27:27;2.25;;;1.80;;
49834;SDS011;35729;52.090;13.162;2023-07-28T02:29:55;1.88;;;1.70;;
49834;SDS011;35729;52.090;13.162;2023-07-28T02:32:27;5.03;;;1.73;;
49834;SDS011;35729;52.090;13.162;2023-07-28T02:34:56;7.03;;;2.30;;
49834;SDS011;35729;52.090;13.162;2023-07-28T02:37:24;5.15;;;1.70;;
49834;SDS011;35729;52.090;13.162;2023-07-28T02:39:53;7.40;;;2.72;;
49834;SDS011;35729;52.090;13.162;2023-07-28T02:42:21;5.57;;;1.95;;
49834;SDS011;35729;52.090;13.162;2023-07-28T02:44:51;4.60;;;1.58;;
49834;SDS011;35729;52.090;13.162;2023-07-28T02:47:20;2.53;;;2.00;;
49834;SDS011;35729;52.090;13.162;2023-07-28T02:49:51;4.22;;;2.05;;
49834;SDS011;35729;52.090;13.162;2023-07-28T02:52:19;4.88;;;1.67;;
49834;SDS011;35729;52.090;13.162;2023-07-28T02:54:48;3.97;;;2.03;;
49834;SDS011;35729;52.090;13.162;2023-07-28T02:57:16;5.70;;;1.90;;
49834;SDS011;35729;52.090;13.162;2023-07-28T02:59:45;3.50;;;1.83;;
49834;SDS011;35729;52.090;13.162;2023-07-28T03:02:13;3.90;;;1.83;;
49834;SDS011;35729;52.090;13.162;2023-07-28T03:04:41;3.65;;;1.70;;
49834;SDS011;35729;52.090;13.162;2023-07-28T03:07:12;6.00;;;1.83;;
49834;SDS011;35729;52.090;13.162;2023-07-28T03:09:41;3.72;;;2.40;;
49834;SDS011;35729;52.090;13.162;2023-07-28T03:12:10;7.82;;;2.22;;
49834;SDS011;35729;52.090;13.162;2023-07-28T03:14:39;5.53;;;2.40;;
49834;SDS011;35729;52.090;13.162;2023-07-28T03:17:07;6.22;;;2.17;;
49834;SDS011;35729;52.090;13.162;2023-07-28T03:19:35;5.55;;;2.10;;
49834;SDS011;35729;52.090;13.162;2023-07-28T03:22:04;5.18;;;2.05;;
49834;SDS011;35729;52.090;13.162;2023-07-28T03:24:35;5.00;;;1.95;;
49834;SDS011;35729;52.090;13.162;2023-07-28T03:27:04;2.45;;;1.73;;
49834;SDS011;35729;52.090;13.162;2023-07-28T03:29:33;5.72;;;1.80;;
49834;SDS011;35729;52.090;13.162;2023-07-28T03:32:02;4.93;;;2.00;;
49834;SDS011;35729;52.090;13.162;2023-07-28T03:34:30;3.72;;;2.00;;
49834;SDS011;35729;52.090;13.162;2023-07-28T03:36:59;2.65;;;1.92;;
49834;SDS011;35729;52.090;13.162;2023-07-28T03:39:28;6.47;;;2.30;;
49834;SDS011;35729;52.090;13.162;2023-07-28T03:41:59;6.03;;;2.30;;
49834;SDS011;35729;52.090;13.162;2023-07-28T03:44:28;4.75;;;2.42;;
49834;SDS011;35729;52.090;13.162;2023-07-28T03:46:56;3.65;;;2.22;;
49834;SDS011;35729;52.090;13.162;2023-07-28T03:49:25;4.55;;;2.10;;
49834;SDS011;35729;52.090;13.162;2023-07-28T03:51:53;3.58;;;2.15;;
49834;SDS011;35729;52.090;13.162;2023-07-28T03:54:22;5.45;;;2.60;;
49834;SDS011;35729;52.090;13.162;2023-07-28T03:56:50;6.75;;;2.40;;
49834;SDS011;35729;52.090;13.162;2023-07-28T03:59:22;6.07;;;2.13;;
49834;SDS011;35729;52.090;13.162;2023-07-28T04:01:50;8.10;;;2.50;;
49834;SDS011;35729;52.090;13.162;2023-07-28T04:04:17;3.58;;;2.53;;
49834;SDS011;35729;52.090;13.162;2023-07-28T04:06:47;4.90;;;2.30;;
49834;SDS011;35729;52.090;13.162;2023-07-28T04:09:17;3.97;;;2.72;;
49834;SDS011;35729;52.090;13.162;2023-07-28T04:11:46;5.55;;;2.28;;
49834;SDS011;35729;52.090;13.162;2023-07-28T04:14:14;4.07;;;1.92;;
49834;SDS011;35729;52.090;13.162;2023-07-28T04:16:45;4.10;;;2.63;;
49834;SDS011;35729;52.090;13.162;2023-07-28T04:19:20;4.75;;;2.13;;
49834;SDS011;35729;52.090;13.162;2023-07-28T04:21:56;3.90;;;2.45;;
49834;SDS011;35729;52.090;13.162;2023-07-28T04:24:24;7.55;;;1.77;;
49834;SDS011;35729;52.090;13.162;2023-07-28T04:26:53;3.50;;;1.95;;
49834;SDS011;35729;52.090;13.162;2023-07-28T04:29:21;3.90;;;1.90;;
49834;SDS011;35729;52.090;13.162;2023-07-28T04:31:52;4.00;;;2.05;;
49834;SDS011;35729;52.090;13.162;2023-07-28T04:34:21;3.10;;;1.70;;
49834;SDS011;35729;52.090;13.162;2023-07-28T04:36:49;8.75;;;2.72;;
49834;SDS011;35729;52.090;13.162;2023-07-28T04:39:18;6.32;;;1.70;;
49834;SDS011;35729;52.090;13.162;2023-07-28T04:41:46;4.97;;;2.00;;
49834;SDS011;35729;52.090;13.162;2023-07-28T04:44:15;8.05;;;1.90;;
49834;SDS011;35729;52.090;13.162;2023-07-28T04:46:44;5.97;;;1.70;;
49834;SDS011;35729;52.090;13.162;2023-07-28T04:49:16;2.30;;;1.70;;
49834;SDS011;35729;52.090;13.162;2023-07-28T04:51:46;4.20;;;1.77;;
49834;SDS011;35729;52.090;13.162;2023-07-28T04:54:15;5.32;;;2.30;;
49834;SDS011;35729;52.090;13.162;2023-07-28T04:56:43;6.20;;;1.80;;
49834;SDS011;35729;52.090;13.162;2023-07-28T04:59:14;6.15;;;1.88;;
49834;SDS011;35729;52.090;13.162;2023-07-28T05:01:43;6.45;;;2.15;;
49834;SDS011;35729;52.090;13.162;2023-07-28T05:04:12;6.78;;;1.83;;
49834;SDS011;35729;52.090;13.162;2023-07-28T05:06:43;7.90;;;2.20;;
49834;SDS011;35729;52.090;13.162;2023-07-28T05:09:11;4.93;;;2.10;;
49834;SDS011;35729;52.090;13.162;2023-07-28T05:11:40;4.88;;;2.42;;
49834;SDS011;35729;52.090;13.162;2023-07-28T05:14:08;3.53;;;1.95;;
49834;SDS011;35729;52.090;13.162;2023-07-28T05:16:36;5.53;;;1.77;;
49834;SDS011;35729;52.090;13.162;2023-07-28T05:19:05;4.40;;;1.70;;
49834;SDS011;35729;52.090;13.162;2023-07-28T05:21:34;3.70;;;1.88;;
49834;SDS011;35729;52.090;13.162;2023-07-28T05:24:05;7.53;;;1.90;;
49834;SDS011;35729;52.090;13.162;2023-07-28T05:26:33;2.75;;;1.58;;
49834;SDS011;35729;52.090;13.162;2023-07-28T05:29:02;7.53;;;2.05;;
49834;SDS011;35729;52.090;13.162;2023-07-28T05:31:30;2.65;;;1.50;;
49834;SDS011;35729;52.090;13.162;2023-07-28T05:33:59;5.07;;;1.85;;
49834;SDS011;35729;52.090;13.162;2023-07-28T05:36:27;6.45;;;2.35;;
49834;SDS011;35729;52.090;13.162;2023-07-28T05:38:57;8.07;;;3.17;;
49834;SDS011;35729;52.090;13.162;2023-07-28T05:41:28;3.53;;;1.80;;
49834;SDS011;35729;52.090;13.162;2023-07-28T05:43:57;2.75;;;1.90;;
49834;SDS011;35729;52.090;13.162;2023-07-28T05:46:25;3.17;;;2.05;;
49834;SDS011;35729;52.090;13.162;2023-07-28T05:48:54;3.05;;;1.67;;
49834;SDS011;35729;52.090;13.162;2023-07-28T05:51:23;4.85;;;1.75;;
49834;SDS011;35729;52.090;13.162;2023-07-28T05:53:51;4.63;;;1.60;;
49834;SDS011;35729;52.090;13.162;2023-07-28T05:56:20;2.78;;;1.20;;
49834;SDS011;35729;52.090;13.162;2023-07-28T05:58:51;6.72;;;2.72;;
49834;SDS011;35729;52.090;13.162;2023-07-28T06:01:20;4.05;;;3.45;;
49834;SDS011;35729;52.090;13.162;2023-07-28T06:03:50;4.82;;;1.15;;
49834;SDS011;35729;52.090;13.162;2023-07-28T06:06:24;5.70;;;1.48;;
49834;SDS011;35729;52.090;13.162;2023-07-28T06:08:52;2.55;;;1.35;;
49834;SDS011;35729;52.090;13.162;2023-07-28T06:11:21;2.55;;;0.90;;
49834;SDS011;35729;52.090;13.162;2023-07-28T06:13:52;2.55;;;0.93;;
49834;SDS011;35729;52.090;13.162;2023-07-28T06:16:22;2.03;;;0.88;;
49834;SDS011;35729;52.090;13.162;2023-07-28T06:18:50;0.77;;;0.68;;
49834;SDS011;35729;52.090;13.162;2023-07-28T06:21:19;5.00;;;1.00;;
49834;SDS011;35729;52.090;13.162;2023-07-28T06:23:47;1.88;;;0.65;;
49834;SDS011;35729;52.090;13.162;2023-07-28T06:26:16;7.40;;;1.17;;
49834;SDS011;35729;52.090;13.162;2023-07-28T06:28:44;1.70;;;0.60;;
49834;SDS011;35729;52.090;13.162;2023-07-28T06:31:15;2.15;;;0.70;;
49834;SDS011;35729;52.090;13.162;2023-07-28T06:33:44;1.35;;;0.80;;
49834;SDS011;35729;52.090;13.162;2023-07-28T06:36:12;1.70;;;0.95;;
49834;SDS011;35729;52.090;13.162;2023-07-28T06:38:43;1.75;;;0.68;;
49834;SDS011;35729;52.090;13.162;2023-07-28T06:41:13;1.42;;;0.90;;
49834;SDS011;35729;52.090;13.162;2023-07-28T06:43:42;2.60;;;1.15;;
49834;SDS011;35729;52.090;13.162;2023-07-28T06:46:10;3.40;;;0.70;;
49834;SDS011;35729;52.090;13.162;2023-07-28T06:48:41;0.98;;;0.60;;
49834;SDS011;35729;52.090;13.162;2023-07-28T06:51:09;1.20;;;0.88;;
49834;SDS011;35729;52.090;13.162;2023-07-28T06:53:38;2.30;;;0.77;;
49834;SDS011;35729;52.090;13.162;2023-07-28T06:56:06;1.70;;;0.68;;
49834;SDS011;35729;52.090;13.162;2023-07-28T06:58:35;2.83;;;1.00;;
49834;SDS011;35729;52.090;13.162;2023-07-28T07:01:03;2.35;;;0.85;;
49834;SDS011;35729;52.090;13.162;2023-07-28T07:03:34;1.23;;;0.80;;
49834;SDS011;35729;52.090;13.162;2023-07-28T07:06:05;1.00;;;0.80;;
49834;SDS011;35729;52.090;13.162;2023-07-28T07:08:33;0.77;;;0.60;;
49834;SDS011;35729;52.090;13.162;2023-07-28T07:11:02;1.83;;;0.73;;
49834;SDS011;35729;52.090;13.162;2023-07-28T07:13:31;0.63;;;0.50;;
49834;SDS011;35729;52.090;13.162;2023-07-28T07:15:59;1.95;;;0.57;;
49834;SDS011;35729;52.090;13.162;2023-07-28T07:18:28;2.25;;;0.52;;
49834;SDS011;35729;52.090;13.162;2023-07-28T07:21:00;1.08;;;0.70;;
49834;SDS011;35729;52.090;13.162;2023-07-28T07:23:33;1.73;;;0.60;;
49834;SDS011;35729;52.090;13.162;2023-07-28T07:26:02;1.85;;;0.55;;
49834;SDS011;35729;52.090;13.162;2023-07-28T07:28:30;3.55;;;1.48;;
49834;SDS011;35729;52.090;13.162;2023-07-28T07:31:00;1.15;;;0.57;;
49834;SDS011;35729;52.090;13.162;2023-07-28T07:33:29;1.60;;;0.57;;
49834;SDS011;35729;52.090;13.162;2023-07-28T07:35:57;0.55;;;0.50;;
49834;SDS011;35729;52.090;13.162;2023-07-28T07:38:26;0.70;;;0.50;;
49834;SDS011;35729;52.090;13.162;2023-07-28T07:40:57;2.80;;;1.00;;
49834;SDS011;35729;52.090;13.162;2023-07-28T07:43:27;1.33;;;0.70;;
49834;SDS011;35729;52.090;13.162;2023-07-28T07:45:55;1.90;;;0.65;;
49834;SDS011;35729;52.090;13.162;2023-07-28T07:48:24;1.67;;;0.70;;
49834;SDS011;35729;52.090;13.162;2023-07-28T07:50:52;1.15;;;0.80;;
49834;SDS011;35729;52.090;13.162;2023-07-28T07:53:21;1.08;;;0.70;;
49834;SDS011;35729;52.090;13.162;2023-07-28T07:55:49;2.15;;;0.65;;
49834;SDS011;35729;52.090;13.162;2023-07-28T07:58:21;2.60;;;1.17;;
49834;SDS011;35729;52.090;13.162;2023-07-28T08:00:49;3.80;;;1.10;;
49834;SDS011;35729;52.090;13.162;2023-07-28T08:03:18;4.13;;;1.45;;
49834;SDS011;35729;52.090;13.162;2023-07-28T08:05:46;2.05;;;0.88;;
49834;SDS011;35729;52.090;13.162;2023-07-28T08:08:14;1.45;;;0.80;;
49834;SDS011;35729;52.090;13.162;2023-07-28T08:10:44;2.47;;;0.73;;
49834;SDS011;35729;52.090;13.162;2023-07-28T08:13:13;1.85;;;1.33;;
49834;SDS011;35729;52.090;13.162;2023-07-28T08:15:45;1.30;;;1.02;;
49834;SDS011;35729;52.090;13.162;2023-07-28T08:18:14;2.03;;;0.90;;
49834;SDS011;35729;52.090;13.162;2023-07-28T08:20:42;2.35;;;0.80;;
49834;SDS011;35729;52.090;13.162;2023-07-28T08:23:11;2.25;;;0.80;;
49834;SDS011;35729;52.090;13.162;2023-07-28T08:25:39;1.23;;;0.70;;
49834;SDS011;35729;52.090;13.162;2023-07-28T08:28:08;1.85;;;0.90;;
49834;SDS011;35729;52.090;13.162;2023-07-28T08:30:36;5.35;;;0.90;;
49834;SDS011;35729;52.090;13.162;2023-07-28T08:33:07;2.35;;;0.88;;
49834;SDS011;35729;52.090;13.162;2023-07-28T08:35:36;2.10;;;0.88;;
49834;SDS011;35729;52.090;13.162;2023-07-28T08:38:04;1.17;;;1.00;;
49834;SDS011;35729;52.090;13.162;2023-07-28T08:40:33;2.60;;;0.88;;
49834;SDS011;35729;52.090;13.162;2023-07-28T08:43:02;1.30;;;0.90;;
49834;SDS011;35729;52.090;13.162;2023-07-28T08:45:30;2.58;;;1.05;;
49834;SDS011;35729;52.090;13.162;2023-07-28T08:47:59;2.65;;;0.90;;
49834;SDS011;35729;52.090;13.162;2023-07-28T08:50:30;3.10;;;1.10;;
49834;SDS011;35729;52.090;13.162;2023-07-28T08:52:59;1.17;;;0.77;;
49834;SDS011;35729;52.090;13.162;2023-07-28T08:55:27;2.20;;;1.17;;
49834;SDS011;35729;52.090;13.162;2023-07-28T08:57:56;2.47;;;0.77;;
49834;SDS011;35729;52.090;13.162;2023-07-28T09:00:42;1.30;;;0.90;;
49834;SDS011;35729;52.090;13.162;2023-07-28T09:03:14;3.83;;;1.40;;
49834;SDS011;35729;52.090;13.162;2023-07-28T09:05:45;1.90;;;0.98;;
49834;SDS011;35729;52.090;13.162;2023-07-28T09:08:15;3.65;;;1.10;;
49834;SDS011;35729;52.090;13.162;2023-07-28T09:10:46;3.22;;;1.00;;
49834;SDS011;35729;52.090;13.162;2023-07-28T09:13:38;2.65;;;1.05;;
49834;SDS011;35729;52.090;13.162;2023-07-28T09:16:15;1.25;;;0.90;;
49834;SDS011;35729;52.090;13.162;2023-07-28T09:18:44;2.95;;;1.00;;
49834;SDS011;35729;52.090;13.162;2023-07-28T09:21:23;1.00;;;0.90;;
49834;SDS011;35729;52.090;13.162;2023-07-28T09:23:59;1.45;;;1.30;;
49834;SDS011;35729;52.090;13.162;2023-07-28T09:26:36;1.70;;;1.33;;
49834;SDS011;35729;52.090;13.162;2023-07-28T09:29:12;2.38;;;1.50;;
49834;SDS011;35729;52.090;13.162;2023-07-28T09:31:42;2.42;;;1.33;;
49834;SDS011;35729;52.090;13.162;2023-07-28T09:34:11;1.67;;;1.30;;
49834;SDS011;35729;52.090;13.162;2023-07-28T09:36:43;3.03;;;1.10;;
49834;SDS011;35729;52.090;13.162;2023-07-28T09:39:12;1.15;;;1.05;;
49834;SDS011;35729;52.090;13.162;2023-07-28T09:41:41;1.40;;;1.30;;
49834;SDS011;35729;52.090;13.162;2023-07-28T09:44:13;1.40;;;1.30;;
49834;SDS011;35729;52.090;13.162;2023-07-28T09:46:45;2.67;;;1.27;;
49834;SDS011;35729;52.090;13.162;2023-07-28T09:49:20;1.60;;;1.13;;
49834;SDS011;35729;52.090;13.162;2023-07-28T09:51:53;2.63;;;1.20;;
49834;SDS011;35729;52.090;13.162;2023-07-28T09:54:23;3.20;;;1.40;;
49834;SDS011;35729;52.090;13.162;2023-07-28T09:56:54;1.38;;;1.27;;
49834;SDS011;35729;52.090;13.162;2023-07-28T09:59:26;3.10;;;1.23;;
49834;SDS011;35729;52.090;13.162;2023-07-28T10:01:59;2.08;;;1.80;;
49834;SDS011;35729;52.090;13.162;2023-07-28T10:04:29;1.60;;;1.50;;
49834;SDS011;35729;52.090;13.162;2023-07-28T10:07:00;2.85;;;1.35;;
49834;SDS011;35729;52.090;13.162;2023-07-28T10:09:30;1.38;;;1.23;;
49834;SDS011;35729;52.090;13.162;2023-07-28T10:12:00;1.70;;;1.15;;
49834;SDS011;35729;52.090;13.162;2023-07-28T10:14:29;1.60;;;1.50;;
49834;SDS011;35729;52.090;13.162;2023-07-28T10:17:00;1.50;;;1.30;;
49834;SDS011;35729;52.090;13.162;2023-07-28T10:19:29;1.35;;;1.17;;
49834;SDS011;35729;52.090;13.162;2023-07-28T10:22:06;3.00;;;1.75;;
49834;SDS011;35729;52.090;13.162;2023-07-28T10:27:30;1.98;;;1.58;;
49834;SDS011;35729;52.090;13.162;2023-07-28T10:30:00;1.98;;;1.27;;
49834;SDS011;35729;52.090;13.162;2023-07-28T10:32:36;2.83;;;1.33;;
49834;SDS011;35729;52.090;13.162;2023-07-28T10:35:06;3.25;;;1.30;;
49834;SDS011;35729;52.090;13.162;2023-07-28T10:37:38;1.63;;;1.40;;
49834;SDS011;35729;52.090;13.162;2023-07-28T10:40:24;2.33;;;1.60;;
49834;SDS011;35729;52.090;13.162;2023-07-28T10:42:55;1.70;;;1.60;;
49834;SDS011;35729;52.090;13.162;2023-07-28T10:45:25;3.45;;;1.80;;
49834;SDS011;35729;52.090;13.162;2023-07-28T10:47:55;2.47;;;1.55;;
49834;SDS011;35729;52.090;13.162;2023-07-28T10:50:26;1.77;;;1.67;;
49834;SDS011;35729;52.090;13.162;2023-07-28T10:52:58;1.75;;;1.63;;
49834;SDS011;35729;52.090;13.162;2023-07-28T10:55:27;1.70;;;1.60;;
49834;SDS011;35729;52.090;13.162;2023-07-28T10:57:55;3.53;;;1.80;;
49834;SDS011;35729;52.090;13.162;2023-07-28T11:00:25;3.53;;;2.13;;
49834;SDS011;35729;52.090;13.162;2023-07-28T11:02:54;1.90;;;1.70;;
49834;SDS011;35729;52.090;13.162;2023-07-28T11:05:23;2.90;;;1.83;;
49834;SDS011;35729;52.090;13.162;2023-07-28T11:07:53;2.40;;;1.83;;
49834;SDS011;35729;52.090;13.162;2023-07-28T11:10:26;2.10;;;1.90;;
49834;SDS011;35729;52.090;13.162;2023-07-28T11:12:58;2.00;;;1.90;;
49834;SDS011;35729;52.090;13.162;2023-07-28T11:15:28;1.77;;;1.60;;
49834;SDS011;35729;52.090;13.162;2023-07-28T11:17:57;2.33;;;2.00;;
49834;SDS011;35729;52.090;13.162;2023-07-28T11:20:26;3.67;;;1.90;;
49834;SDS011;35729;52.090;13.162;2023-07-28T11:22:57;1.80;;;1.70;;
49834;SDS011;35729;52.090;13.162;2023-07-28T11:25:29;2.90;;;1.70;;
49834;SDS011;35729;52.090;13.162;2023-07-28T11:28:00;2.08;;;1.90;;
49834;SDS011;35729;52.090;13.162;2023-07-28T11:30:30;2.70;;;1.70;;
49834;SDS011;35729;52.090;13.162;2023-07-28T11:33:00;2.00;;;1.70;;
49834;SDS011;35729;52.090;13.162;2023-07-28T11:35:31;1.90;;;1.80;;
49834;SDS011;35729;52.090;13.162;2023-07-28T11:37:59;1.58;;;1.48;;
49834;SDS011;35729;52.090;13.162;2023-07-28T11:40:30;4.72;;;1.73;;
49834;SDS011;35729;52.090;13.162;2023-07-28T11:42:59;3.55;;;2.03;;
49834;SDS011;35729;52.090;13.162;2023-07-28T11:45:29;3.88;;;2.40;;
49834;SDS011;35729;52.090;13.162;2023-07-28T11:47:58;5.35;;;2.63;;
49834;SDS011;35729;52.090;13.162;2023-07-28T11:50:28;2.58;;;2.38;;
49834;SDS011;35729;52.090;13.162;2023-07-28T11:52:58;2.55;;;2.35;;
49834;SDS011;35729;52.090;13.162;2023-07-28T11:55:26;3.13;;;2.40;;
49834;SDS011;35729;52.090;13.162;2023-07-28T11:57:59;2.33;;;1.90;;
49834;SDS011;35729;52.090;13.162;2023-07-28T12:00:30;2.55;;;2.35;;
49834;SDS011;35729;52.090;13.162;2023-07-28T12:03:03;2.85;;;2.65;;
49834;SDS011;35729;52.090;13.162;2023-07-28T12:05:34;3.42;;;2.05;;
49834;SDS011;35729;52.090;13.162;2023-07-28T12:08:03;2.85;;;2.20;;
49834;SDS011;35729;52.090;13.162;2023-07-28T12:10:32;2.85;;;2.30;;
49834;SDS011;35729;52.090;13.162;2023-07-28T12:13:08;4.25;;;2.28;;
49834;SDS011;35729;52.090;13.162;2023-07-28T12:15:40;2.25;;;2.05;;
49834;SDS011;35729;52.090;13.162;2023-07-28T12:18:09;3.42;;;2.40;;
49834;SDS011;35729;52.090;13.162;2023-07-28T12:20:40;2.80;;;2.10;;
49834;SDS011;35729;52.090;13.162;2023-07-28T12:23:11;3.35;;;2.28;;
49834;SDS011;35729;52.090;13.162;2023-07-28T12:25:41;2.30;;;1.95;;
49834;SDS011;35729;52.090;13.162;2023-07-28T12:28:13;2.30;;;2.10;;
49834;SDS011;35729;52.090;13.162;2023-07-28T12:30:42;2.70;;;1.75;;
49834;SDS011;35729;52.090;13.162;2023-07-28T12:33:10;2.10;;;1.90;;
49834;SDS011;35729;52.090;13.162;2023-07-28T12:35:39;2.00;;;1.80;;
49834;SDS011;35729;52.090;13.162;2023-07-28T12:38:07;2.75;;;1.70;;
49834;SDS011;35729;52.090;13.162;2023-07-28T12:40:36;3.47;;;2.08;;
49834;SDS011;35729;52.090;13.162;2023-07-28T12:43:04;2.47;;;2.08;;
49834;SDS011;35729;52.090;13.162;2023-07-28T12:45:35;2.25;;;1.75;;
49834;SDS011;35729;52.090;13.162;2023-07-28T12:48:04;2.20;;;2.00;;
49834;SDS011;35729;52.090;13.162;2023-07-28T12:50:32;3.03;;;1.70;;
49834;SDS011;35729;52.090;13.162;2023-07-28T12:53:01;2.22;;;1.70;;
49834;SDS011;35729;52.090;13.162;2023-07-28T12:55:29;3.85;;;1.98;;
49834;SDS011;35729;52.090;13.162;2023-07-28T12:58:00;2.85;;;1.70;;
49834;SDS011;35729;52.090;13.162;2023-07-28T13:00:29;2.97;;;1.73;;
49834;SDS011;35729;52.090;13.162;2023-07-28T13:03:00;2.50;;;2.30;;
49834;SDS011;35729;52.090;13.162;2023-07-28T13:05:28;1.50;;;1.30;;
49834;SDS011;35729;52.090;13.162;2023-07-28T13:07:57;1.60;;;1.50;;
49834;SDS011;35729;52.090;13.162;2023-07-28T13:10:25;3.05;;;1.80;;
49834;SDS011;35729;52.090;13.162;2023-07-28T13:12:54;1.73;;;1.63;;
49834;SDS011;35729;52.090;13.162;2023-07-28T13:15:22;3.75;;;1.70;;
49834;SDS011;35729;52.090;13.162;2023-07-28T13:17:51;2.60;;;1.52;;
49834;SDS011;35729;52.090;13.162;2023-07-28T13:20:22;1.67;;;1.58;;
49834;SDS011;35729;52.090;13.162;2023-07-28T13:22:51;1.98;;;1.35;;
49834;SDS011;35729;52.090;13.162;2023-07-28T13:25:19;2.75;;;1.65;;
49834;SDS011;35729;52.090;13.162;2023-07-28T13:27:48;1.52;;;1.40;;
49834;SDS011;35729;52.090;13.162;2023-07-28T13:30:16;1.70;;;1.60;;
49834;SDS011;35729;52.090;13.162;2023-07-28T13:32:45;1.50;;;1.40;;
49834;SDS011;35729;52.090;13.162;2023-07-28T13:35:13;1.50;;;1.40;;
49834;SDS011;35729;52.090;13.162;2023-07-28T13:37:44;2.08;;;1.33;;
49834;SDS011;35729;52.090;13.162;2023-07-28T13:40:13;1.60;;;1.50;;
49834;SDS011;35729;52.090;13.162;2023-07-28T13:42:41;1.75;;;1.65;;
49834;SDS011;35729;52.090;13.162;2023-07-28T13:45:10;2.03;;;1.50;;
49834;SDS011;35729;52.090;13.162;2023-07-28T13:47:38;1.73;;;1.42;;
49834;SDS011;35729;52.090;13.162;2023-07-28T13:50:07;5.15;;;1.65;;
49834;SDS011;35729;52.090;13.162;2023-07-28T13:52:36;3.25;;;1.58;;
49834;SDS011;35729;52.090;13.162;2023-07-28T13:55:07;1.40;;;1.30;;
49834;SDS011;35729;52.090;13.162;2023-07-28T13:57:36;1.58;;;1.35;;
49834;SDS011;35729;52.090;13.162;2023-07-28T14:00:05;1.73;;;1.45;;
49834;SDS011;35729;52.090;13.162;2023-07-28T14:02:34;3.40;;;1.80;;
49834;SDS011;35729;52.090;13.162;2023-07-28T14:05:04;3.97;;;1.40;;
49834;SDS011;35729;52.090;13.162;2023-07-28T14:07:33;1.50;;;1.40;;
49834;SDS011;35729;52.090;13.162;2023-07-28T14:10:03;1.90;;;1.80;;
49834;SDS011;35729;52.090;13.162;2023-07-28T14:12:34;1.50;;;1.40;;
49834;SDS011;35729;52.090;13.162;2023-07-28T14:15:03;1.58;;;1.48;;
49834;SDS011;35729;52.090;13.162;2023-07-28T14:17:32;3.10;;;1.50;;
49834;SDS011;35729;52.090;13.162;2023-07-28T14:20:01;1.60;;;1.50;;
49834;SDS011;35729;52.090;13.162;2023-07-28T14:22:31;1.63;;;1.52;;
49834;SDS011;35729;52.090;13.162;2023-07-28T14:24:59;1.98;;;1.40;;
49834;SDS011;35729;52.090;13.162;2023-07-28T14:27:28;1.65;;;1.50;;
49834;SDS011;35729;52.090;13.162;2023-07-28T14:29:59;1.50;;;1.40;;
49834;SDS011;35729;52.090;13.162;2023-07-28T14:32:27;1.58;;;1.42;;
49834;SDS011;35729;52.090;13.162;2023-07-28T14:34:56;1.42;;;1.33;;
49834;SDS011;35729;52.090;13.162;2023-07-28T14:37:24;3.00;;;1.50;;
49834;SDS011;35729;52.090;13.162;2023-07-28T14:39:53;2.38;;;1.83;;
49834;SDS011;35729;52.090;13.162;2023-07-28T14:42:21;2.47;;;1.65;;
49834;SDS011;35729;52.090;13.162;2023-07-28T14:44:50;1.88;;;1.77;;
49834;SDS011;35729;52.090;13.162;2023-07-28T14:47:21;1.40;;;1.30;;
49834;SDS011;35729;52.090;13.162;2023-07-28T14:49:49;1.55;;;1.38;;
49834;SDS011;35729;52.090;13.162;2023-07-28T14:52:18;1.30;;;1.20;;